sensor_id;sensor_type;location;lat;lon;timestamp;pressure;altitude;pressure_sealevel;temperature;humidity
46087;BME280;31824;49.648;8.640;2023-04-08T00:03:00;100699.84;;;8.34;100.00
46087;BME280;31824;49.648;8.640;2023-04-08T00:06:02;100709.78;;;8.29;100.00
46087;BME280;31824;49.648;8.640;2023-04-08T00:09:06;100701.84;;;8.20;100.00
46087;BME280;31824;49.648;8.640;2023-04-08T00:12:08;100712.91;;;8.18;100.00
46087;BME280;31824;49.648;8.640;2023-04-08T00:15:10;100709.88;;;8.22;100.00
46087;BME280;31824;49.648;8.640;2023-04-08T00:18:12;100709.34;;;8.17;100.00
46087;BME280;31824;49.648;8.640;2023-04-08T00:21:14;100711.47;;;8.13;100.00
46087;BME280;31824;49.648;8.640;2023-04-08T00:24:19;100709.88;;;8.06;100.00
46087;BME280;31824;49.648;8.640;2023-04-08T00:27:21;100708.38;;;8.08;100.00
46087;BME280;31824;49.648;8.640;2023-04-08T00:30:25;100709.69;;;8.04;100.00
46087;BME280;31824;49.648;8.640;2023-04-08T00:33:28;100707.41;;;8.07;100.00
46087;BME280;31824;49.648;8.640;2023-04-08T00:36:30;100714.84;;;8.11;100.00
46087;BME280;31824;49.648;8.640;2023-04-08T00:39:33;100710.41;;;8.10;100.00
46087;BME280;31824;49.648;8.640;2023-04-08T00:42:35;100708.44;;;8.17;100.00
46087;BME280;31824;49.648;8.640;2023-04-08T00:45:37;100707.94;;;8.12;100.00
46087;BME280;31824;49.648;8.640;2023-04-08T00:48:39;100708.53;;;8.09;100.00
46087;BME280;31824;49.648;8.640;2023-04-08T00:51:41;100712.22;;;8.11;100.00
46087;BME280;31824;49.648;8.640;2023-04-08T00:54:44;100710.41;;;8.10;100.00
46087;BME280;31824;49.648;8.640;2023-04-08T00:57:46;100718.25;;;8.10;100.00
46087;BME280;31824;49.648;8.640;2023-04-08T01:01:01;100715.00;;;8.13;100.00
46087;BME280;31824;49.648;8.640;2023-04-08T01:04:08;100722.28;;;8.16;100.00
46087;BME280;31824;49.648;8.640;2023-04-08T01:07:17;100720.94;;;8.19;100.00
46087;BME280;31824;49.648;8.640;2023-04-08T01:10:23;100714.25;;;8.14;100.00
46087;BME280;31824;49.648;8.640;2023-04-08T01:13:30;100710.03;;;8.07;100.00
46087;BME280;31824;49.648;8.640;2023-04-08T01:16:37;100716.97;;;8.07;100.00
46087;BME280;31824;49.648;8.640;2023-04-08T01:19:41;100714.34;;;8.07;100.00
46087;BME280;31824;49.648;8.640;2023-04-08T01:22:54;100714.69;;;8.10;100.00
46087;BME280;31824;49.648;8.640;2023-04-08T01:26:00;100713.50;;;8.15;100.00
46087;BME280;31824;49.648;8.640;2023-04-08T01:29:02;100716.72;;;8.13;100.00
46087;BME280;31824;49.648;8.640;2023-04-08T01:32:06;100709.59;;;8.11;100.00
46087;BME280;31824;49.648;8.640;2023-04-08T01:35:08;100715.34;;;8.00;100.00
46087;BME280;31824;49.648;8.640;2023-04-08T01:38:15;100709.44;;;7.94;100.00
46087;BME280;31824;49.648;8.640;2023-04-08T01:41:20;100716.34;;;7.93;100.00
46087;BME280;31824;49.648;8.640;2023-04-08T01:44:23;100712.56;;;7.83;100.00
46087;BME280;31824;49.648;8.640;2023-04-08T01:47:27;100717.78;;;7.83;100.00
46087;BME280;31824;49.648;8.640;2023-04-08T01:50:30;100708.78;;;7.88;100.00
46087;BME280;31824;49.648;8.640;2023-04-08T01:53:33;100711.81;;;7.84;100.00
46087;BME280;31824;49.648;8.640;2023-04-08T01:56:38;100703.88;;;7.91;100.00
46087;BME280;31824;49.648;8.640;2023-04-08T01:59:42;100708.78;;;7.88;100.00
46087;BME280;31824;49.648;8.640;2023-04-08T02:02:48;100710.28;;;7.86;100.00
46087;BME280;31824;49.648;8.640;2023-04-08T02:05:54;100717.78;;;7.83;100.00
46087;BME280;31824;49.648;8.640;2023-04-08T02:08:58;100716.09;;;7.83;100.00
46087;BME280;31824;49.648;8.640;2023-04-08T02:12:01;100719.31;;;7.81;100.00
46087;BME280;31824;49.648;8.640;2023-04-08T02:15:04;100724.13;;;7.85;100.00
46087;BME280;31824;49.648;8.640;2023-04-08T02:18:13;100719.47;;;7.82;100.00
46087;BME280;31824;49.648;8.640;2023-04-08T02:21:17;100721.56;;;7.77;100.00
46087;BME280;31824;49.648;8.640;2023-04-08T02:24:21;100729.66;;;7.72;100.00
46087;BME280;31824;49.648;8.640;2023-04-08T02:27:25;100726.88;;;7.70;100.00
46087;BME280;31824;49.648;8.640;2023-04-08T02:30:29;100722.81;;;7.65;100.00
46087;BME280;31824;49.648;8.640;2023-04-08T02:33:33;100714.00;;;7.49;100.00
46087;BME280;31824;49.648;8.640;2023-04-08T02:36:35;100724.47;;;7.49;100.00
46087;BME280;31824;49.648;8.640;2023-04-08T02:39:37;100719.22;;;7.49;100.00
46087;BME280;31824;49.648;8.640;2023-04-08T02:42:41;100723.72;;;7.50;100.00
46087;BME280;31824;49.648;8.640;2023-04-08T02:45:43;100722.59;;;7.48;100.00
46087;BME280;31824;49.648;8.640;2023-04-08T02:48:45;100726.00;;;7.47;100.00
46087;BME280;31824;49.648;8.640;2023-04-08T02:51:47;100723.53;;;7.48;100.00
46087;BME280;31824;49.648;8.640;2023-04-08T02:54:49;100722.97;;;7.51;100.00
46087;BME280;31824;49.648;8.640;2023-04-08T02:57:52;100721.84;;;7.49;100.00
46087;BME280;31824;49.648;8.640;2023-04-08T03:00:54;100722.09;;;7.43;100.00
46087;BME280;31824;49.648;8.640;2023-04-08T03:03:56;100727.16;;;7.41;100.00
46087;BME280;31824;49.648;8.640;2023-04-08T03:06:58;100724.88;;;7.44;100.00
46087;BME280;31824;49.648;8.640;2023-04-08T03:10:02;100731.31;;;7.55;100.00
46087;BME280;31824;49.648;8.640;2023-04-08T03:13:06;100724.91;;;7.60;100.00
46087;BME280;31824;49.648;8.640;2023-04-08T03:16:07;100724.34;;;7.63;100.00
46087;BME280;31824;49.648;8.640;2023-04-08T03:19:10;100721.34;;;7.60;100.00
46087;BME280;31824;49.648;8.640;2023-04-08T03:22:13;100723.94;;;7.67;100.00
46087;BME280;31824;49.648;8.640;2023-04-08T03:25:15;100720.28;;;7.58;100.00
46087;BME280;31824;49.648;8.640;2023-04-08T03:28:18;100728.38;;;7.52;100.00
46087;BME280;31824;49.648;8.640;2023-04-08T03:31:20;100723.94;;;7.44;100.00
46087;BME280;31824;49.648;8.640;2023-04-08T03:34:21;100724.94;;;7.37;100.00
46087;BME280;31824;49.648;8.640;2023-04-08T03:37:23;100732.78;;;7.37;100.00
46087;BME280;31824;49.648;8.640;2023-04-08T03:40:25;100731.31;;;7.32;100.00
46087;BME280;31824;49.648;8.640;2023-04-08T03:43:28;100737.13;;;7.30;100.00
46087;BME280;31824;49.648;8.640;2023-04-08T03:46:30;100737.69;;;7.27;100.00
46087;BME280;31824;49.648;8.640;2023-04-08T03:49:32;100734.69;;;7.31;100.00
46087;BME280;31824;49.648;8.640;2023-04-08T03:52:34;100732.81;;;7.30;100.00
46087;BME280;31824;49.648;8.640;2023-04-08T03:55:36;100735.81;;;7.33;100.00
46087;BME280;31824;49.648;8.640;2023-04-08T03:58:40;100725.19;;;7.32;100.00
46087;BME280;31824;49.648;8.640;2023-04-08T04:01:42;100735.03;;;7.34;100.00
46087;BME280;31824;49.648;8.640;2023-04-08T04:04:43;100735.44;;;7.30;100.00
46087;BME280;31824;49.648;8.640;2023-04-08T04:07:46;100733.63;;;7.22;100.00
46087;BME280;31824;49.648;8.640;2023-04-08T04:10:47;100733.47;;;7.20;100.00
46087;BME280;31824;49.648;8.640;2023-04-08T04:13:50;100731.19;;;7.23;100.00
46087;BME280;31824;49.648;8.640;2023-04-08T04:16:52;100737.47;;;7.33;100.00
46087;BME280;31824;49.648;8.640;2023-04-08T04:19:54;100741.38;;;7.36;100.00
46087;BME280;31824;49.648;8.640;2023-04-08T04:22:56;100734.09;;;7.34;100.00
46087;BME280;31824;49.648;8.640;2023-04-08T04:25:58;100730.91;;;7.36;100.00
46087;BME280;31824;49.648;8.640;2023-04-08T04:29:01;100736.06;;;7.43;100.00
46087;BME280;31824;49.648;8.640;2023-04-08T04:32:03;100739.69;;;7.37;100.00
46087;BME280;31824;49.648;8.640;2023-04-08T04:35:05;100741.31;;;7.43;100.00
46087;BME280;31824;49.648;8.640;2023-04-08T04:38:07;100747.66;;;7.46;100.00
46087;BME280;31824;49.648;8.640;2023-04-08T04:41:13;100744.28;;;7.47;100.00
46087;BME280;31824;49.648;8.640;2023-04-08T04:44:17;100745.03;;;7.46;100.00
46087;BME280;31824;49.648;8.640;2023-04-08T04:47:20;100745.94;;;7.46;100.00
46087;BME280;31824;49.648;8.640;2023-04-08T04:50:21;100754.34;;;7.51;100.00
46087;BME280;31824;49.648;8.640;2023-04-08T04:53:23;100758.84;;;7.44;100.00
46087;BME280;31824;49.648;8.640;2023-04-08T04:56:25;100748.22;;;7.43;100.00
46087;BME280;31824;49.648;8.640;2023-04-08T04:59:28;100752.53;;;7.42;100.00
46087;BME280;31824;49.648;8.640;2023-04-08T05:02:31;100759.66;;;7.36;100.00
46087;BME280;31824;49.648;8.640;2023-04-08T05:05:33;100762.09;;;7.35;100.00
46087;BME280;31824;49.648;8.640;2023-04-08T05:08:35;100766.69;;;7.21;100.00
46087;BME280;31824;49.648;8.640;2023-04-08T05:11:37;100758.72;;;7.13;100.00
46087;BME280;31824;49.648;8.640;2023-04-08T05:14:40;100763.81;;;7.04;100.00
46087;BME280;31824;49.648;8.640;2023-04-08T05:17:42;100776.81;;;6.81;100.00
46087;BME280;31824;49.648;8.640;2023-04-08T05:20:44;100780.28;;;6.58;100.00
46087;BME280;31824;49.648;8.640;2023-04-08T05:23:46;100789.84;;;6.43;100.00
46087;BME280;31824;49.648;8.640;2023-04-08T05:26:48;100787.63;;;6.39;100.00
46087;BME280;31824;49.648;8.640;2023-04-08T05:29:55;100794.03;;;6.19;100.00
46087;BME280;31824;49.648;8.640;2023-04-08T05:32:56;100796.09;;;6.07;100.00
46087;BME280;31824;49.648;8.640;2023-04-08T05:36:01;100795.16;;;5.92;100.00
46087;BME280;31824;49.648;8.640;2023-04-08T05:39:03;100802.25;;;5.86;100.00
46087;BME280;31824;49.648;8.640;2023-04-08T05:42:05;100808.75;;;5.90;100.00
46087;BME280;31824;49.648;8.640;2023-04-08T05:45:09;100806.00;;;6.03;100.00
46087;BME280;31824;49.648;8.640;2023-04-08T05:48:11;100809.13;;;5.93;100.00
46087;BME280;31824;49.648;8.640;2023-04-08T05:51:13;100813.44;;;5.78;100.00
46087;BME280;31824;49.648;8.640;2023-04-08T05:54:15;100814.38;;;5.71;100.00
46087;BME280;31824;49.648;8.640;2023-04-08T05:57:18;100820.50;;;5.65;100.00
46087;BME280;31824;49.648;8.640;2023-04-08T06:00:21;100822.56;;;5.67;100.00
46087;BME280;31824;49.648;8.640;2023-04-08T06:03:23;100818.81;;;5.65;100.00
46087;BME280;31824;49.648;8.640;2023-04-08T06:06:25;100825.72;;;5.65;100.00
46087;BME280;31824;49.648;8.640;2023-04-08T06:09:27;100828.13;;;5.78;100.00
46087;BME280;31824;49.648;8.640;2023-04-08T06:12:29;100835.75;;;5.76;100.00
46087;BME280;31824;49.648;8.640;2023-04-08T06:15:33;100843.41;;;5.74;100.00
46087;BME280;31824;49.648;8.640;2023-04-08T06:18:35;100838.00;;;5.95;100.00
46087;BME280;31824;49.648;8.640;2023-04-08T06:21:36;100838.56;;;6.14;100.00
46087;BME280;31824;49.648;8.640;2023-04-08T06:24:38;100836.66;;;6.34;100.00
46087;BME280;31824;49.648;8.640;2023-04-08T06:27:41;100837.78;;;6.44;100.00
46087;BME280;31824;49.648;8.640;2023-04-08T06:30:44;100838.09;;;6.54;100.00
46087;BME280;31824;49.648;8.640;2023-04-08T06:33:45;100842.53;;;6.62;100.00
46087;BME280;31824;49.648;8.640;2023-04-08T06:36:47;100840.69;;;6.54;100.00
46087;BME280;31824;49.648;8.640;2023-04-08T06:39:50;100847.19;;;6.65;100.00
46087;BME280;31824;49.648;8.640;2023-04-08T06:42:52;100843.28;;;6.68;100.00
46087;BME280;31824;49.648;8.640;2023-04-08T06:46:07;100837.28;;;6.76;100.00
46087;BME280;31824;49.648;8.640;2023-04-08T06:49:09;100843.75;;;6.87;100.00
46087;BME280;31824;49.648;8.640;2023-04-08T06:52:11;100835.09;;;7.03;100.00
46087;BME280;31824;49.648;8.640;2023-04-08T06:55:15;100845.66;;;7.19;100.00
46087;BME280;31824;49.648;8.640;2023-04-08T06:58:17;100841.03;;;7.09;100.00
46087;BME280;31824;49.648;8.640;2023-04-08T07:01:20;100838.94;;;7.14;100.00
46087;BME280;31824;49.648;8.640;2023-04-08T07:04:23;100838.22;;;7.15;100.00
46087;BME280;31824;49.648;8.640;2023-04-08T07:07:25;100848.78;;;7.23;100.00
46087;BME280;31824;49.648;8.640;2023-04-08T07:10:27;100845.41;;;7.32;100.00
46087;BME280;31824;49.648;8.640;2023-04-08T07:13:29;100851.25;;;7.52;100.00
46087;BME280;31824;49.648;8.640;2023-04-08T07:16:33;100856.66;;;7.77;100.00
46087;BME280;31824;49.648;8.640;2023-04-08T07:19:34;100865.16;;;7.90;100.00
46087;BME280;31824;49.648;8.640;2023-04-08T07:22:37;100866.72;;;7.81;100.00
46087;BME280;31824;49.648;8.640;2023-04-08T07:25:39;100861.38;;;7.96;100.00
46087;BME280;31824;49.648;8.640;2023-04-08T07:28:41;100868.41;;;8.20;100.00
46087;BME280;31824;49.648;8.640;2023-04-08T07:31:44;100864.31;;;8.22;100.00
46087;BME280;31824;49.648;8.640;2023-04-08T07:34:46;100873.50;;;8.57;100.00
46087;BME280;31824;49.648;8.640;2023-04-08T07:37:48;100877.94;;;8.42;100.00
46087;BME280;31824;49.648;8.640;2023-04-08T07:40:50;100880.53;;;8.66;100.00
46087;BME280;31824;49.648;8.640;2023-04-08T07:43:52;100882.06;;;8.64;100.00
46087;BME280;31824;49.648;8.640;2023-04-08T07:46:55;100880.22;;;8.39;100.00
46087;BME280;31824;49.648;8.640;2023-04-08T07:49:57;100880.88;;;8.53;100.00
46087;BME280;31824;49.648;8.640;2023-04-08T07:52:58;100884.81;;;8.49;100.00
46087;BME280;31824;49.648;8.640;2023-04-08T07:56:01;100891.09;;;8.90;100.00
46087;BME280;31824;49.648;8.640;2023-04-08T07:59:04;100902.50;;;8.75;100.00
46087;BME280;31824;49.648;8.640;2023-04-08T08:02:08;100889.31;;;8.98;100.00
46087;BME280;31824;49.648;8.640;2023-04-08T08:05:10;100889.91;;;8.64;100.00
46087;BME280;31824;49.648;8.640;2023-04-08T08:08:12;100893.94;;;8.69;100.00
46087;BME280;31824;49.648;8.640;2023-04-08T08:11:14;100891.78;;;8.97;100.00
46087;BME280;31824;49.648;8.640;2023-04-08T08:14:17;100892.13;;;9.40;100.00
46087;BME280;31824;49.648;8.640;2023-04-08T08:17:40;100894.44;;;9.21;100.00
46087;BME280;31824;49.648;8.640;2023-04-08T08:20:42;100901.19;;;9.19;100.00
46087;BME280;31824;49.648;8.640;2023-04-08T08:23:44;100899.16;;;9.33;100.00
46087;BME280;31824;49.648;8.640;2023-04-08T08:26:46;100898.41;;;9.34;100.00
46087;BME280;31824;49.648;8.640;2023-04-08T08:29:50;100898.16;;;9.64;100.00
46087;BME280;31824;49.648;8.640;2023-04-08T08:32:54;100912.31;;;10.07;100.00
46087;BME280;31824;49.648;8.640;2023-04-08T08:35:59;100914.00;;;9.82;100.00
46087;BME280;31824;49.648;8.640;2023-04-08T08:39:01;100916.19;;;10.10;100.00
46087;BME280;31824;49.648;8.640;2023-04-08T08:42:03;100912.59;;;10.01;100.00
46087;BME280;31824;49.648;8.640;2023-04-08T08:45:06;100916.81;;;10.17;100.00
46087;BME280;31824;49.648;8.640;2023-04-08T08:48:10;100923.28;;;10.36;100.00
46087;BME280;31824;49.648;8.640;2023-04-08T08:51:12;100917.88;;;10.86;100.00
46087;BME280;31824;49.648;8.640;2023-04-08T08:54:14;100922.16;;;10.68;100.00
46087;BME280;31824;49.648;8.640;2023-04-08T08:57:17;100915.06;;;10.75;100.00
46087;BME280;31824;49.648;8.640;2023-04-08T09:00:30;100920.81;;;10.80;100.00
46087;BME280;31824;49.648;8.640;2023-04-08T09:03:36;100918.59;;;10.67;100.00
46087;BME280;31824;49.648;8.640;2023-04-08T09:06:38;100925.00;;;11.04;100.00
46087;BME280;31824;49.648;8.640;2023-04-08T09:09:50;100927.44;;;10.68;100.00
46087;BME280;31824;49.648;8.640;2023-04-08T09:12:53;100927.00;;;10.98;100.00
46087;BME280;31824;49.648;8.640;2023-04-08T09:16:00;100930.88;;;10.93;100.00
46087;BME280;31824;49.648;8.640;2023-04-08T09:19:09;100930.44;;;11.32;100.00
46087;BME280;31824;49.648;8.640;2023-04-08T09:22:11;100927.53;;;11.46;100.00
46087;BME280;31824;49.648;8.640;2023-04-08T09:25:22;100932.78;;;11.46;100.00
46087;BME280;31824;49.648;8.640;2023-04-08T09:28:24;100929.44;;;10.79;100.00
46087;BME280;31824;49.648;8.640;2023-04-08T09:31:28;100939.91;;;10.70;100.00
46087;BME280;31824;49.648;8.640;2023-04-08T09:34:32;100940.50;;;11.27;100.00
46087;BME280;31824;49.648;8.640;2023-04-08T09:37:35;100947.09;;;10.80;100.00
46087;BME280;31824;49.648;8.640;2023-04-08T09:40:37;100942.06;;;11.17;100.00
46087;BME280;31824;49.648;8.640;2023-04-08T09:43:42;100942.81;;;11.59;100.00
46087;BME280;31824;49.648;8.640;2023-04-08T09:46:55;100944.00;;;10.93;100.00
46087;BME280;31824;49.648;8.640;2023-04-08T09:50:01;100943.28;;;11.20;100.00
46087;BME280;31824;49.648;8.640;2023-04-08T09:53:09;100932.75;;;11.55;100.00
46087;BME280;31824;49.648;8.640;2023-04-08T09:56:14;100940.91;;;10.88;100.00
46087;BME280;31824;49.648;8.640;2023-04-08T09:59:18;100947.94;;;11.40;100.00
46087;BME280;31824;49.648;8.640;2023-04-08T10:02:28;100946.69;;;11.63;100.00
46087;BME280;31824;49.648;8.640;2023-04-08T10:05:36;100941.28;;;11.26;100.00
46087;BME280;31824;49.648;8.640;2023-04-08T10:08:39;100952.34;;;10.80;100.00
46087;BME280;31824;49.648;8.640;2023-04-08T10:11:42;100950.22;;;11.11;100.00
46087;BME280;31824;49.648;8.640;2023-04-08T10:15:27;100951.38;;;10.71;100.00
46087;BME280;31824;49.648;8.640;2023-04-08T10:18:30;100949.59;;;10.54;100.00
46087;BME280;31824;49.648;8.640;2023-04-08T10:21:36;100959.72;;;10.67;100.00
46087;BME280;31824;49.648;8.640;2023-04-08T10:24:38;100953.91;;;10.87;100.00
46087;BME280;31824;49.648;8.640;2023-04-08T10:27:40;100962.56;;;10.94;100.00
46087;BME280;31824;49.648;8.640;2023-04-08T10:30:45;100963.31;;;10.85;100.00
46087;BME280;31824;49.648;8.640;2023-04-08T10:33:47;100965.03;;;10.93;100.00
46087;BME280;31824;49.648;8.640;2023-04-08T10:36:52;100953.34;;;11.15;100.00
46087;BME280;31824;49.648;8.640;2023-04-08T10:39:54;100959.06;;;10.60;100.00
46087;BME280;31824;49.648;8.640;2023-04-08T10:42:56;100965.34;;;10.78;100.00
46087;BME280;31824;49.648;8.640;2023-04-08T10:45:58;100961.09;;;10.63;100.00
46087;BME280;31824;49.648;8.640;2023-04-08T10:49:01;100961.53;;;11.19;100.00
46087;BME280;31824;49.648;8.640;2023-04-08T10:52:07;100954.75;;;11.21;100.00
46087;BME280;31824;49.648;8.640;2023-04-08T10:55:09;100953.50;;;11.43;100.00
46087;BME280;31824;49.648;8.640;2023-04-08T10:58:12;100950.19;;;10.85;100.00
46087;BME280;31824;49.648;8.640;2023-04-08T11:01:14;100953.34;;;11.33;100.00
46087;BME280;31824;49.648;8.640;2023-04-08T11:04:17;100948.69;;;11.39;100.00
46087;BME280;31824;49.648;8.640;2023-04-08T11:07:27;100946.69;;;11.28;100.00
46087;BME280;31824;49.648;8.640;2023-04-08T11:10:28;100941.75;;;11.57;100.00
46087;BME280;31824;49.648;8.640;2023-04-08T11:13:32;100945.28;;;11.14;100.00
46087;BME280;31824;49.648;8.640;2023-04-08T11:16:34;100944.84;;;11.18;100.00
46087;BME280;31824;49.648;8.640;2023-04-08T11:19:37;100948.41;;;11.27;100.00
46087;BME280;31824;49.648;8.640;2023-04-08T11:22:41;100941.59;;;11.38;100.00
46087;BME280;31824;49.648;8.640;2023-04-08T11:25:46;100945.91;;;11.38;100.00
46087;BME280;31824;49.648;8.640;2023-04-08T11:28:49;100945.78;;;11.27;100.00
46087;BME280;31824;49.648;8.640;2023-04-08T11:31:52;100948.84;;;11.85;100.00
46087;BME280;31824;49.648;8.640;2023-04-08T11:34:55;100941.41;;;11.10;100.00
46087;BME280;31824;49.648;8.640;2023-04-08T11:37:58;100944.22;;;11.47;100.00
46087;BME280;31824;49.648;8.640;2023-04-08T11:41:00;100940.00;;;12.02;100.00
46087;BME280;31824;49.648;8.640;2023-04-08T11:44:02;100939.19;;;11.94;100.00
46087;BME280;31824;49.648;8.640;2023-04-08T11:47:04;100935.97;;;12.05;100.00
46087;BME280;31824;49.648;8.640;2023-04-08T11:50:07;100928.06;;;11.96;100.00
46087;BME280;31824;49.648;8.640;2023-04-08T11:53:18;100932.81;;;12.63;100.00
46087;BME280;31824;49.648;8.640;2023-04-08T11:56:21;100920.50;;;11.56;100.00
46087;BME280;31824;49.648;8.640;2023-04-08T11:59:26;100922.56;;;12.30;100.00
46087;BME280;31824;49.648;8.640;2023-04-08T12:02:30;100926.00;;;12.84;100.00
46087;BME280;31824;49.648;8.640;2023-04-08T12:05:32;100931.44;;;13.05;100.00
46087;BME280;31824;49.648;8.640;2023-04-08T12:08:35;100937.22;;;12.00;100.00
46087;BME280;31824;49.648;8.640;2023-04-08T12:11:38;100927.44;;;11.81;100.00
46087;BME280;31824;49.648;8.640;2023-04-08T12:14:40;100927.34;;;11.71;100.00
46087;BME280;31824;49.648;8.640;2023-04-08T12:17:42;100922.94;;;11.89;100.00
46087;BME280;31824;49.648;8.640;2023-04-08T12:20:46;100927.75;;;12.02;100.00
46087;BME280;31824;49.648;8.640;2023-04-08T12:23:49;100924.16;;;12.19;100.00
46087;BME280;31824;49.648;8.640;2023-04-08T12:26:53;100923.50;;;13.14;100.00
46087;BME280;31824;49.648;8.640;2023-04-08T12:29:55;100919.63;;;13.10;100.00
46087;BME280;31824;49.648;8.640;2023-04-08T12:32:57;100914.75;;;12.96;100.00
46087;BME280;31824;49.648;8.640;2023-04-08T12:35:58;100914.66;;;12.30;100.00
46087;BME280;31824;49.648;8.640;2023-04-08T12:39:02;100913.75;;;12.21;100.00
46087;BME280;31824;49.648;8.640;2023-04-08T12:42:04;100902.25;;;12.84;100.00
46087;BME280;31824;49.648;8.640;2023-04-08T12:45:07;100920.75;;;13.80;100.00
46087;BME280;31824;49.648;8.640;2023-04-08T12:48:10;100907.31;;;12.92;100.00
46087;BME280;31824;49.648;8.640;2023-04-08T12:51:12;100896.78;;;13.39;100.00
46087;BME280;31824;49.648;8.640;2023-04-08T12:54:15;100889.59;;;12.99;100.00
46087;BME280;31824;49.648;8.640;2023-04-08T12:57:17;100893.81;;;13.16;100.00
46087;BME280;31824;49.648;8.640;2023-04-08T13:00:19;100902.78;;;13.46;100.00
46087;BME280;31824;49.648;8.640;2023-04-08T13:03:23;100903.16;;;13.70;100.00
46087;BME280;31824;49.648;8.640;2023-04-08T13:06:28;100902.25;;;13.80;100.00
46087;BME280;31824;49.648;8.640;2023-04-08T13:09:32;100908.53;;;13.91;100.00
46087;BME280;31824;49.648;8.640;2023-04-08T13:12:34;100903.03;;;13.79;100.00
46087;BME280;31824;49.648;8.640;2023-04-08T13:15:36;100905.69;;;13.49;100.00
46087;BME280;31824;49.648;8.640;2023-04-08T13:18:39;100903.38;;;13.92;100.00
46087;BME280;31824;49.648;8.640;2023-04-08T13:21:41;100901.66;;;14.82;100.00
46087;BME280;31824;49.648;8.640;2023-04-08T13:24:48;100900.91;;;15.47;100.00
46087;BME280;31824;49.648;8.640;2023-04-08T13:27:50;100899.75;;;14.61;100.00
46087;BME280;31824;49.648;8.640;2023-04-08T13:30:53;100905.09;;;15.02;100.00
46087;BME280;31824;49.648;8.640;2023-04-08T13:34:00;100895.25;;;14.10;100.00
46087;BME280;31824;49.648;8.640;2023-04-08T13:37:03;100891.47;;;13.20;100.00
46087;BME280;31824;49.648;8.640;2023-04-08T13:40:07;100898.50;;;13.67;100.00
46087;BME280;31824;49.648;8.640;2023-04-08T13:43:10;100897.72;;;13.98;100.00
46087;BME280;31824;49.648;8.640;2023-04-08T13:46:12;100896.41;;;13.93;100.00
46087;BME280;31824;49.648;8.640;2023-04-08T13:49:17;100891.50;;;13.97;100.00
46087;BME280;31824;49.648;8.640;2023-04-08T13:52:19;100902.78;;;13.46;100.00
46087;BME280;31824;49.648;8.640;2023-04-08T13:55:22;100907.28;;;13.00;100.00
46087;BME280;31824;49.648;8.640;2023-04-08T13:58:24;100898.59;;;13.21;100.00
46087;BME280;31824;49.648;8.640;2023-04-08T14:01:27;100904.38;;;13.16;100.00
46087;BME280;31824;49.648;8.640;2023-04-08T14:04:29;100900.38;;;13.30;100.00
46087;BME280;31824;49.648;8.640;2023-04-08T14:07:31;100899.66;;;13.23;100.00
46087;BME280;31824;49.648;8.640;2023-04-08T14:10:35;100905.94;;;13.33;100.00
46087;BME280;31824;49.648;8.640;2023-04-08T14:13:37;100901.03;;;13.28;100.00
46087;BME280;31824;49.648;8.640;2023-04-08T14:16:41;100896.09;;;13.22;100.00
46087;BME280;31824;49.648;8.640;2023-04-08T14:19:44;100895.63;;;12.79;100.00
46087;BME280;31824;49.648;8.640;2023-04-08T14:22:47;100885.69;;;13.24;100.00
46087;BME280;31824;49.648;8.640;2023-04-08T14:25:50;100894.72;;;12.98;100.00
46087;BME280;31824;49.648;8.640;2023-04-08T14:28:52;100894.81;;;13.27;100.00
46087;BME280;31824;49.648;8.640;2023-04-08T14:31:54;100895.81;;;13.19;100.00
46087;BME280;31824;49.648;8.640;2023-04-08T14:34:55;100900.53;;;12.85;100.00
46087;BME280;31824;49.648;8.640;2023-04-08T14:38:00;100900.38;;;13.30;100.00
46087;BME280;31824;49.648;8.640;2023-04-08T14:41:05;100898.78;;;13.41;100.00
46087;BME280;31824;49.648;8.640;2023-04-08T14:44:08;100902.47;;;12.77;100.00
46087;BME280;31824;49.648;8.640;2023-04-08T14:47:10;100911.78;;;12.74;100.00
46087;BME280;31824;49.648;8.640;2023-04-08T14:50:12;100908.47;;;12.57;100.00
46087;BME280;31824;49.648;8.640;2023-04-08T14:53:14;100903.84;;;12.82;100.00
46087;BME280;31824;49.648;8.640;2023-04-08T14:56:17;100901.63;;;12.87;100.00
46087;BME280;31824;49.648;8.640;2023-04-08T14:59:19;100912.97;;;12.58;100.00
46087;BME280;31824;49.648;8.640;2023-04-08T15:02:21;100911.31;;;12.78;100.00
46087;BME280;31824;49.648;8.640;2023-04-08T15:05:23;100908.13;;;12.35;100.00
46087;BME280;31824;49.648;8.640;2023-04-08T15:08:27;100915.13;;;12.26;100.00
46087;BME280;31824;49.648;8.640;2023-04-08T15:11:32;100916.50;;;12.31;100.00
46087;BME280;31824;49.648;8.640;2023-04-08T15:14:34;100903.41;;;12.13;100.00
46087;BME280;31824;49.648;8.640;2023-04-08T15:17:36;100917.06;;;12.46;100.00
46087;BME280;31824;49.648;8.640;2023-04-08T15:20:39;100918.88;;;12.56;100.00
46087;BME280;31824;49.648;8.640;2023-04-08T15:23:43;100914.38;;;12.27;100.00
46087;BME280;31824;49.648;8.640;2023-04-08T15:26:48;100918.53;;;12.33;100.00
46087;BME280;31824;49.648;8.640;2023-04-08T15:29:49;100926.03;;;12.48;100.00
46087;BME280;31824;49.648;8.640;2023-04-08T15:32:51;100922.00;;;12.79;100.00
46087;BME280;31824;49.648;8.640;2023-04-08T15:35:53;100925.59;;;12.71;100.00
46087;BME280;31824;49.648;8.640;2023-04-08T15:38:55;100914.56;;;12.75;100.00
46087;BME280;31824;49.648;8.640;2023-04-08T15:41:59;100920.09;;;12.87;100.00
46087;BME280;31824;49.648;8.640;2023-04-08T15:45:02;100925.97;;;13.12;100.00
46087;BME280;31824;49.648;8.640;2023-04-08T15:48:05;100927.69;;;13.12;100.00
46087;BME280;31824;49.648;8.640;2023-04-08T15:51:07;100931.47;;;12.77;100.00
46087;BME280;31824;49.648;8.640;2023-04-08T15:54:09;100928.44;;;13.39;100.00